createdAt,value
2018-03-25T00:01:50.364Z,13.13
2018-03-25T00:04:19.771Z,13.70
2018-03-25T00:07:03.495Z,12.10
2018-03-25T00:09:33.086Z,12.67
2018-03-25T00:12:03.264Z,13.10
2018-03-25T00:14:32.841Z,12.83
2018-03-25T00:17:02.751Z,13.57
2018-03-25T00:19:32.287Z,13.60
2018-03-25T00:22:05.308Z,13.67
2018-03-25T00:24:34.952Z,12.30
2018-03-25T00:27:07.639Z,11.90
2018-03-25T00:29:36.963Z,11.73
2018-03-25T00:32:19.619Z,12.80
2018-03-25T00:34:50.001Z,12.83
2018-03-25T00:37:21.161Z,12.07
2018-03-25T00:39:51.378Z,13.77
2018-03-25T00:42:21.230Z,13.57
2018-03-25T00:44:50.698Z,12.63
2018-03-25T00:47:20.109Z,11.50
2018-03-25T00:49:50.154Z,13.60
2018-03-25T00:52:22.202Z,15.17
2018-03-25T00:54:52.332Z,30.87
2018-03-25T00:57:23.216Z,17.37
2018-03-25T00:59:53.370Z,16.43
2018-03-25T01:02:26.808Z,28.93
2018-03-25T01:04:56.397Z,19.40
2018-03-25T01:07:28.325Z,24.30
2018-03-25T01:09:57.911Z,21.27
2018-03-25T01:12:29.330Z,17.73
2018-03-25T01:15:00.026Z,16.53
2018-03-25T01:17:34.066Z,21.93
2018-03-25T01:20:03.663Z,29.10
2018-03-25T01:22:35.297Z,33.07
2018-03-25T01:25:05.755Z,29.30
2018-03-25T01:27:39.916Z,14.43
2018-03-25T01:30:10.490Z,12.53
2018-03-25T01:32:43.285Z,13.07
2018-03-25T01:35:13.203Z,13.63
2018-03-25T01:37:43.913Z,13.57
2018-03-25T01:40:15.234Z,13.13
2018-03-25T01:42:49.327Z,12.40
2018-03-25T01:45:20.638Z,15.20
2018-03-25T01:47:51.823Z,16.17
2018-03-25T01:50:22.495Z,14.60
2018-03-25T01:52:55.201Z,14.97
2018-03-25T01:55:25.550Z,12.80
2018-03-25T01:58:07.568Z,12.47
2018-03-25T02:00:37.736Z,16.80
2018-03-25T02:03:07.854Z,29.00
2018-03-25T02:05:37.879Z,22.00
2018-03-25T02:08:07.997Z,20.40
2018-03-25T02:10:37.869Z,12.00
2018-03-25T02:13:07.829Z,13.00
2018-03-25T02:15:38.499Z,13.47
2018-03-25T02:18:12.608Z,13.77
2018-03-25T02:20:43.419Z,14.00
2018-03-25T02:23:15.182Z,13.87
2018-03-25T02:25:45.065Z,16.60
2018-03-25T02:28:16.137Z,14.33
2018-03-25T02:30:46.415Z,15.53
2018-03-25T02:33:18.597Z,14.63
2018-03-25T02:35:49.345Z,13.53
2018-03-25T02:38:21.193Z,15.23
2018-03-25T02:40:51.906Z,14.17
2018-03-25T02:43:22.687Z,14.40
2018-03-25T02:45:52.945Z,13.10
2018-03-25T02:48:26.467Z,13.30
2018-03-25T02:50:57.351Z,15.20
2018-03-25T02:53:27.671Z,13.40
2018-03-25T02:55:57.748Z,13.93
2018-03-25T02:58:29.800Z,14.00
2018-03-25T03:01:00.331Z,13.67
2018-03-25T03:03:33.842Z,13.73
2018-03-25T03:06:05.369Z,13.40
2018-03-25T03:08:35.929Z,13.27
2018-03-25T03:11:06.227Z,13.23
2018-03-25T03:13:38.127Z,13.50
2018-03-25T03:16:08.930Z,13.00
2018-03-25T03:18:40.564Z,14.33
2018-03-25T03:21:11.298Z,12.20
2018-03-25T03:23:42.469Z,12.47
2018-03-25T03:26:14.137Z,12.77
2018-03-25T03:28:45.732Z,13.43
2018-03-25T03:31:15.887Z,13.33
2018-03-25T03:33:49.879Z,13.60
2018-03-25T03:36:20.011Z,13.97
2018-03-25T03:38:50.832Z,14.27
2018-03-25T03:41:20.890Z,13.40
2018-03-25T03:43:55.420Z,14.17
2018-03-25T03:46:26.369Z,11.83
2018-03-25T03:48:59.601Z,11.60
2018-03-25T03:51:30.190Z,12.97
2018-03-25T03:54:01.819Z,12.13
2018-03-25T03:56:31.976Z,11.30
2018-03-25T03:59:03.816Z,11.63
2018-03-25T04:01:36.050Z,13.37
2018-03-25T04:04:11.277Z,13.43
2018-03-25T04:06:42.258Z,12.30
2018-03-25T04:09:14.173Z,12.83
2018-03-25T04:11:45.482Z,12.63
2018-03-25T04:14:17.476Z,12.97
2018-03-25T04:16:48.294Z,12.90
2018-03-25T04:19:19.451Z,13.90
2018-03-25T04:21:49.730Z,13.90
2018-03-25T04:24:23.259Z,15.53
2018-03-25T04:26:54.849Z,13.07
2018-03-25T04:29:25.567Z,13.87
2018-03-25T04:31:55.812Z,13.47
2018-03-25T04:34:26.050Z,13.37
2018-03-25T04:36:56.711Z,14.00
2018-03-25T04:39:27.778Z,15.33
2018-03-25T04:41:58.472Z,14.60
2018-03-25T04:44:30.094Z,14.27
2018-03-25T04:47:02.032Z,14.63
2018-03-25T04:49:34.551Z,15.20
2018-03-25T04:52:05.703Z,13.63
2018-03-25T04:54:35.996Z,14.83
2018-03-25T04:57:06.079Z,14.90
2018-03-25T04:59:41.085Z,14.50
2018-03-25T05:02:11.488Z,14.53
2018-03-25T05:04:43.323Z,17.37
2018-03-25T05:07:13.376Z,19.90
2018-03-25T05:09:44.730Z,24.13
2018-03-25T05:12:15.746Z,20.50
2018-03-25T05:14:47.489Z,21.40
2018-03-25T05:17:24.868Z,25.20
2018-03-25T05:19:55.302Z,19.90
2018-03-25T05:22:25.773Z,31.50
2018-03-25T05:24:56.772Z,26.67
2018-03-25T05:27:27.576Z,25.60
2018-03-25T05:29:58.956Z,24.13
2018-03-25T05:32:30.038Z,21.03
2018-03-25T05:35:03.217Z,19.20
2018-03-25T05:37:34.627Z,18.07
2018-03-25T05:40:05.094Z,20.73
2018-03-25T05:42:35.869Z,23.30
2018-03-25T05:45:08.195Z,21.60
2018-03-25T05:47:40.383Z,19.10
2018-03-25T05:50:13.652Z,17.23
2018-03-25T05:52:44.958Z,16.17
2018-03-25T05:55:15.290Z,17.17
2018-03-25T05:57:45.957Z,15.87
2018-03-25T06:00:17.128Z,18.00
2018-03-25T06:02:48.532Z,16.53
2018-03-25T06:05:19.847Z,12.90
2018-03-25T06:07:50.351Z,15.10
2018-03-25T06:10:20.598Z,15.43
2018-03-25T06:12:50.529Z,13.80
2018-03-25T06:15:23.771Z,13.13
2018-03-25T06:17:55.094Z,13.83
2018-03-25T06:20:26.292Z,15.20
2018-03-25T06:22:57.226Z,13.67
2018-03-25T06:25:28.253Z,15.83
2018-03-25T06:28:00.036Z,14.40
2018-03-25T06:30:30.615Z,15.13
2018-03-25T06:33:02.029Z,13.93
2018-03-25T06:35:32.587Z,14.90
2018-03-25T06:38:03.160Z,14.03
2018-03-25T06:40:36.140Z,14.20
2018-03-25T06:43:06.569Z,14.43
2018-03-25T06:45:37.190Z,14.67
2018-03-25T06:48:08.239Z,14.43
2018-03-25T06:50:41.994Z,15.80
2018-03-25T06:53:14.708Z,13.83
2018-03-25T06:55:46.283Z,14.97
2018-03-25T06:58:16.123Z,14.57
2018-03-25T07:00:47.388Z,13.40
2018-03-25T07:03:17.605Z,15.53
2018-03-25T07:05:50.579Z,14.30
2018-03-25T07:08:20.522Z,14.70
2018-03-25T07:10:52.273Z,15.23
2018-03-25T07:13:22.703Z,14.03
2018-03-25T07:15:54.613Z,14.70
2018-03-25T07:18:26.140Z,13.43
2018-03-25T07:20:57.923Z,14.07
2018-03-25T07:23:27.899Z,14.50
2018-03-25T07:26:00.647Z,15.53
2018-03-25T07:28:30.622Z,15.47
2018-03-25T07:31:04.523Z,14.63
2018-03-25T07:33:34.650Z,14.37
2018-03-25T07:36:08.240Z,15.13
2018-03-25T07:38:37.832Z,15.63
2018-03-25T07:41:11.667Z,15.87
2018-03-25T07:43:42.030Z,14.00
2018-03-25T07:46:12.180Z,15.73
2018-03-25T07:48:42.718Z,16.37
2018-03-25T07:51:15.279Z,13.57
2018-03-25T07:53:45.500Z,13.53
2018-03-25T07:56:16.962Z,13.20
2018-03-25T07:58:46.774Z,14.30
2018-03-25T08:01:20.701Z,14.53
2018-03-25T08:03:50.766Z,14.57
2018-03-25T08:06:23.458Z,13.67
2018-03-25T08:08:52.864Z,14.27
2018-03-25T08:11:25.043Z,12.90
2018-03-25T08:13:55.144Z,15.67
2018-03-25T08:16:26.127Z,13.63
2018-03-25T08:18:56.260Z,14.73
2018-03-25T08:21:27.748Z,14.90
2018-03-25T08:23:57.936Z,14.27
2018-03-25T08:26:31.170Z,18.80
2018-03-25T08:29:00.920Z,24.47
2018-03-25T08:31:34.137Z,22.67
2018-03-25T08:34:04.287Z,17.73
2018-03-25T08:36:37.196Z,16.87
2018-03-25T08:39:07.423Z,14.90
2018-03-25T08:41:40.828Z,18.40
2018-03-25T08:44:10.406Z,18.50
2018-03-25T08:46:43.582Z,15.13
2018-03-25T08:49:12.989Z,54.60
2018-03-25T08:51:44.757Z,15.77
2018-03-25T08:54:14.581Z,14.60
2018-03-25T08:56:48.525Z,15.97
2018-03-25T08:59:18.418Z,14.73
2018-03-25T09:01:51.134Z,24.03
2018-03-25T09:04:20.493Z,15.23
2018-03-25T09:06:52.292Z,15.83
2018-03-25T09:09:21.879Z,15.70
2018-03-25T09:12:03.459Z,16.27
2018-03-25T09:14:34.458Z,15.77
2018-03-25T09:17:04.844Z,19.60
2018-03-25T09:19:34.153Z,15.43
2018-03-25T09:22:04.560Z,15.17
2018-03-25T09:24:34.478Z,16.30
2018-03-25T09:27:05.690Z,16.10
2018-03-25T09:29:36.747Z,15.83
2018-03-25T09:32:18.472Z,32.57
2018-03-25T09:34:50.561Z,16.47
2018-03-25T09:37:21.393Z,15.13
2018-03-25T09:39:51.503Z,16.87
2018-03-25T09:42:21.261Z,45.60
2018-03-25T09:44:51.916Z,16.13
2018-03-25T09:47:21.238Z,16.07
2018-03-25T09:49:50.802Z,16.63
2018-03-25T09:52:21.921Z,14.97
2018-03-25T09:54:51.978Z,15.57
2018-03-25T09:57:23.025Z,16.27
2018-03-25T09:59:52.232Z,16.57
2018-03-25T10:02:27.438Z,15.00
2018-03-25T10:04:56.954Z,15.50
2018-03-25T10:07:27.255Z,15.50
2018-03-25T10:09:56.961Z,14.63
2018-03-25T10:12:29.335Z,16.27
2018-03-25T10:14:59.025Z,15.63
2018-03-25T10:17:32.590Z,19.70
2018-03-25T10:20:03.090Z,14.73
2018-03-25T10:22:36.210Z,14.83
2018-03-25T10:25:06.073Z,13.37
2018-03-25T10:27:37.586Z,15.53
2018-03-25T10:30:07.702Z,19.57
2018-03-25T10:32:42.001Z,16.37
2018-03-25T10:35:11.578Z,17.80
2018-03-25T10:37:45.275Z,17.73
2018-03-25T10:40:15.457Z,16.10
2018-03-25T10:42:47.927Z,15.30
2018-03-25T10:45:17.282Z,15.30
2018-03-25T10:47:50.196Z,15.00
2018-03-25T10:50:19.707Z,14.63
2018-03-25T10:52:53.256Z,16.17
2018-03-25T10:55:24.187Z,15.57
2018-03-25T10:57:58.237Z,16.20
2018-03-25T11:00:28.113Z,15.03
2018-03-25T11:02:59.849Z,15.60
2018-03-25T11:05:29.295Z,15.70
2018-03-25T11:08:11.785Z,16.10
2018-03-25T11:10:43.138Z,15.87
2018-03-25T11:13:12.721Z,16.20
2018-03-25T11:15:42.818Z,15.53
2018-03-25T11:18:12.105Z,14.87
2018-03-25T11:20:44.213Z,16.77
2018-03-25T11:23:13.950Z,16.33
2018-03-25T11:25:44.798Z,16.00
2018-03-25T11:28:15.244Z,16.77
2018-03-25T11:30:45.557Z,16.07
2018-03-25T11:33:16.812Z,16.87
2018-03-25T11:35:46.384Z,16.83
2018-03-25T11:38:19.882Z,15.67
2018-03-25T11:40:50.329Z,16.30
2018-03-25T11:43:23.159Z,16.13
2018-03-25T11:45:52.386Z,15.97
2018-03-25T11:48:23.865Z,16.50
2018-03-25T11:50:53.973Z,16.43
2018-03-25T11:53:28.666Z,17.53
2018-03-25T11:55:59.147Z,16.20
2018-03-25T11:58:29.824Z,15.70
2018-03-25T12:01:00.416Z,16.20
2018-03-25T12:03:34.362Z,17.73
2018-03-25T12:06:06.018Z,17.17
2018-03-25T12:08:37.061Z,16.20
2018-03-25T12:11:07.298Z,15.70
2018-03-25T12:13:37.932Z,15.77
2018-03-25T12:16:08.323Z,16.23
2018-03-25T12:18:50.578Z,15.90
2018-03-25T12:21:20.270Z,15.00
2018-03-25T12:23:50.458Z,14.33
2018-03-25T12:26:20.658Z,17.33
2018-03-25T12:28:51.365Z,16.00
2018-03-25T12:31:20.680Z,15.40
2018-03-25T12:33:49.929Z,15.57
2018-03-25T12:36:20.353Z,14.70
2018-03-25T12:38:52.781Z,15.47
2018-03-25T12:41:22.957Z,17.43
2018-03-25T12:43:55.412Z,16.20
2018-03-25T12:46:25.019Z,16.43
2018-03-25T12:48:58.810Z,16.80
2018-03-25T12:51:29.560Z,17.90
2018-03-25T12:54:02.860Z,14.90
2018-03-25T12:56:32.151Z,16.93
2018-03-25T12:59:04.854Z,17.17
2018-03-25T13:01:34.934Z,16.90
2018-03-25T13:04:08.025Z,17.97
2018-03-25T13:06:37.566Z,24.70
2018-03-25T13:09:11.605Z,16.97
2018-03-25T13:11:42.301Z,22.60
2018-03-25T13:14:12.991Z,19.70
2018-03-25T13:16:43.684Z,19.03
2018-03-25T13:19:15.406Z,20.50
2018-03-25T13:21:45.477Z,18.03
2018-03-25T13:24:18.494Z,19.23
2018-03-25T13:26:49.009Z,16.17
2018-03-25T13:29:20.296Z,17.13
2018-03-25T13:31:50.976Z,19.27
2018-03-25T13:34:23.447Z,17.53
2018-03-25T13:36:52.681Z,17.03
2018-03-25T13:39:24.203Z,18.30
2018-03-25T13:41:54.688Z,17.47
2018-03-25T13:44:28.492Z,17.73
2018-03-25T13:46:58.579Z,17.30
2018-03-25T13:49:30.600Z,18.20
2018-03-25T13:51:59.942Z,16.90
2018-03-25T13:54:32.327Z,17.67
2018-03-25T13:57:01.867Z,17.07
2018-03-25T13:59:35.745Z,18.00
2018-03-25T14:02:06.747Z,18.27
2018-03-25T14:04:38.425Z,16.40
2018-03-25T14:07:09.129Z,16.90
2018-03-25T14:09:40.992Z,19.10
2018-03-25T14:12:10.653Z,18.37
2018-03-25T14:14:43.917Z,19.10
2018-03-25T14:17:14.424Z,17.20
2018-03-25T14:19:47.268Z,17.87
2018-03-25T14:22:16.907Z,17.87
2018-03-25T14:24:59.014Z,18.83
2018-03-25T14:27:29.652Z,18.53
2018-03-25T14:29:59.454Z,18.50
2018-03-25T14:32:29.155Z,19.17
2018-03-25T14:35:00.230Z,18.67
2018-03-25T14:37:30.284Z,17.83
2018-03-25T14:40:00.656Z,18.17
2018-03-25T14:42:30.627Z,17.30
2018-03-25T14:45:02.412Z,17.37
2018-03-25T14:47:32.086Z,18.87
2018-03-25T14:50:04.681Z,18.03
2018-03-25T14:52:34.282Z,17.47
2018-03-25T14:55:08.771Z,17.40
2018-03-25T14:57:40.681Z,17.63
2018-03-25T15:00:29.038Z,17.63
2018-03-25T15:03:00.508Z,16.37
2018-03-25T15:05:31.147Z,17.47
2018-03-25T15:08:00.546Z,18.50
2018-03-25T15:10:29.832Z,17.00
2018-03-25T15:12:59.796Z,17.50
2018-03-25T15:15:29.666Z,16.10
2018-03-25T15:17:59.259Z,15.13
2018-03-25T15:20:29.242Z,16.37
2018-03-25T15:22:59.584Z,17.07
2018-03-25T15:25:29.649Z,16.40
2018-03-25T15:27:59.707Z,16.73
2018-03-25T15:30:29.646Z,16.93
2018-03-25T15:32:59.295Z,17.20
2018-03-25T15:35:30.736Z,17.07
2018-03-25T15:38:01.133Z,17.53
2018-03-25T15:40:35.182Z,17.50
2018-03-25T15:43:04.490Z,17.90
2018-03-25T15:45:37.781Z,17.40
2018-03-25T15:48:22.384Z,17.80
2018-03-25T15:50:52.446Z,19.17
2018-03-25T15:53:21.657Z,18.43
2018-03-25T15:55:50.903Z,19.07
2018-03-25T15:58:20.507Z,18.37
2018-03-25T16:00:49.888Z,18.30
2018-03-25T16:03:20.511Z,18.03
2018-03-25T16:05:50.792Z,17.23
2018-03-25T16:08:19.942Z,18.83
2018-03-25T16:10:53.470Z,17.40
2018-03-25T16:13:24.560Z,16.50
2018-03-25T16:15:55.225Z,18.23
2018-03-25T16:18:24.477Z,17.10
2018-03-25T16:20:59.555Z,19.07
2018-03-25T16:23:31.219Z,17.90
2018-03-25T16:26:03.906Z,17.40
2018-03-25T16:28:34.626Z,17.60
2018-03-25T16:31:05.074Z,17.07
2018-03-25T16:33:34.342Z,16.63
2018-03-25T16:36:08.479Z,17.07
2018-03-25T16:38:38.485Z,17.77
2018-03-25T16:41:10.820Z,19.13
2018-03-25T16:43:40.340Z,19.50
2018-03-25T16:46:11.563Z,18.30
2018-03-25T16:48:40.777Z,18.60
2018-03-25T16:51:14.371Z,19.13
2018-03-25T16:53:44.871Z,22.10
2018-03-25T16:56:18.146Z,23.70
2018-03-25T16:58:47.475Z,19.50
2018-03-25T17:01:20.322Z,26.83
2018-03-25T17:03:50.948Z,24.97
2018-03-25T17:06:21.432Z,30.80
2018-03-25T17:08:51.389Z,22.87
2018-03-25T17:11:25.027Z,22.93
2018-03-25T17:13:56.008Z,22.87
2018-03-25T17:16:27.800Z,23.80
2018-03-25T17:18:57.114Z,25.07
2018-03-25T17:21:29.002Z,23.60
2018-03-25T17:23:59.630Z,26.33
2018-03-25T17:26:32.459Z,26.23
2018-03-25T17:29:01.660Z,26.17
2018-03-25T17:31:43.994Z,26.87
2018-03-25T17:34:14.789Z,26.43
2018-03-25T17:36:44.459Z,27.23
2018-03-25T17:39:14.436Z,27.00
2018-03-25T17:41:45.066Z,29.23
2018-03-25T17:44:15.586Z,37.73
2018-03-25T17:46:45.198Z,36.43
2018-03-25T17:49:15.174Z,33.43
2018-03-25T17:51:46.102Z,31.10
2018-03-25T17:54:16.081Z,32.10
2018-03-25T17:56:49.233Z,25.50
2018-03-25T17:59:19.231Z,29.37
2018-03-25T18:01:51.293Z,29.17
2018-03-25T18:04:21.822Z,29.87
2018-03-25T18:06:54.645Z,25.77
2018-03-25T18:09:24.576Z,23.50
2018-03-25T18:11:58.128Z,23.87
2018-03-25T18:14:28.304Z,21.63
2018-03-25T18:16:59.744Z,25.73
2018-03-25T18:46:16.281Z,20.00
2018-03-25T18:48:46.649Z,19.97
2018-03-25T18:51:18.397Z,19.57
2018-03-25T18:53:48.011Z,18.33
2018-03-25T18:56:20.850Z,19.00
2018-03-25T18:58:51.663Z,17.80
2018-03-25T19:01:23.864Z,19.17
2018-03-25T19:03:54.508Z,18.83
2018-03-25T19:06:25.402Z,19.03
2018-03-25T19:08:55.591Z,18.10
2018-03-25T19:11:27.548Z,19.60
2018-03-25T19:13:57.518Z,20.00
2018-03-25T19:16:29.129Z,19.33
2018-03-25T19:19:00.177Z,18.40
2018-03-25T19:21:32.840Z,16.73
2018-03-25T19:24:02.984Z,19.77
2018-03-25T19:26:34.667Z,19.07
2018-03-25T19:29:04.403Z,18.80
2018-03-25T19:31:38.083Z,17.77
2018-03-25T19:34:07.975Z,19.57
2018-03-25T19:36:40.740Z,21.03
2018-03-25T19:39:09.948Z,16.70
2018-03-25T19:41:52.232Z,19.70
2018-03-25T19:44:21.376Z,18.50
2018-03-25T19:46:51.669Z,19.50
2018-03-25T19:49:20.957Z,18.27
2018-03-25T19:51:50.191Z,19.27
2018-03-25T19:54:20.970Z,18.47
2018-03-25T19:56:52.178Z,19.03
2018-03-25T19:59:22.447Z,19.67
2018-03-25T20:01:53.876Z,20.40
2018-03-25T20:04:23.041Z,20.50
2018-03-25T20:06:58.934Z,21.50
2018-03-25T20:09:29.889Z,23.37
2018-03-25T20:12:02.637Z,23.77
2018-03-25T20:14:31.856Z,27.63
2018-03-25T20:17:13.999Z,24.10
2018-03-25T20:19:44.373Z,25.87
2018-03-25T20:22:14.708Z,26.43
2018-03-25T20:24:44.356Z,22.63
2018-03-25T20:27:14.700Z,21.97
2018-03-25T20:29:44.402Z,19.70
2018-03-25T20:32:18.506Z,21.63
2018-03-25T20:34:49.099Z,25.40
2018-03-25T20:37:19.547Z,27.90
2018-03-25T20:39:49.806Z,25.07
2018-03-25T20:42:19.813Z,26.97
2018-03-25T20:44:49.729Z,24.50
2018-03-25T20:47:22.996Z,21.97
2018-03-25T20:49:52.492Z,23.20
2018-03-25T20:52:23.729Z,22.17
2018-03-25T20:54:52.850Z,22.10
2018-03-25T20:57:26.110Z,28.40
2018-03-25T20:59:55.363Z,34.67
2018-03-25T21:02:27.695Z,32.67
2018-03-25T21:05:00.884Z,26.40
2018-03-25T21:07:30.440Z,26.73
2018-03-25T21:09:59.709Z,28.27
2018-03-25T21:12:42.416Z,27.83
2018-03-25T21:15:12.396Z,24.53
2018-03-25T21:17:41.639Z,25.63
2018-03-25T21:20:11.793Z,23.43
2018-03-25T21:22:42.142Z,21.80
2018-03-25T21:25:11.791Z,21.77
2018-03-25T21:27:41.430Z,21.47
2018-03-25T21:30:11.332Z,21.60
2018-03-25T21:32:53.690Z,20.73
2018-03-25T21:35:24.500Z,21.47
2018-03-25T21:37:54.580Z,21.27
2018-03-25T21:40:24.642Z,23.17
2018-03-25T21:42:55.789Z,19.80
2018-03-25T21:45:25.292Z,20.00
2018-03-25T21:47:54.646Z,19.97
2018-03-25T21:50:25.528Z,22.03
2018-03-25T21:52:58.107Z,20.33
2018-03-25T21:55:27.495Z,20.47
2018-03-25T21:58:01.262Z,23.70
2018-03-25T22:00:32.378Z,21.27
2018-03-25T22:03:06.551Z,21.77
2018-03-25T22:05:36.033Z,21.03
2018-03-25T22:08:09.889Z,23.47
2018-03-25T22:10:39.998Z,23.50
2018-03-25T22:13:13.242Z,22.70
2018-03-25T22:15:42.735Z,22.50
2018-03-25T22:18:28.919Z,22.83
2018-03-25T22:20:58.825Z,23.27
2018-03-25T22:23:28.264Z,23.77
2018-03-25T22:25:57.611Z,22.80
2018-03-25T22:28:27.730Z,24.83
2018-03-25T22:30:58.308Z,25.00
2018-03-25T22:33:27.698Z,23.37
2018-03-25T22:35:57.232Z,24.60
2018-03-25T22:38:27.436Z,23.70
2018-03-25T22:40:57.545Z,24.40
2018-03-25T22:43:28.280Z,26.17
2018-03-25T22:45:57.993Z,23.87
2018-03-25T22:48:30.315Z,23.73
2018-03-25T22:51:00.308Z,23.70
2018-03-25T22:53:32.705Z,22.67
2018-03-25T22:56:01.954Z,24.90
2018-03-25T22:58:34.000Z,24.10
2018-03-25T23:01:04.629Z,23.17
2018-03-25T23:03:38.279Z,24.77
2018-03-25T23:06:08.008Z,24.40
2018-03-25T23:08:40.668Z,23.93
2018-03-25T23:11:10.045Z,23.80
2018-03-25T23:13:42.566Z,24.90
2018-03-25T23:16:11.923Z,24.13
2018-03-25T23:18:48.075Z,23.90
2018-03-25T23:21:18.711Z,24.33
2018-03-25T23:23:52.520Z,24.03
2018-03-25T23:26:23.924Z,26.03
2018-03-25T23:28:53.446Z,23.50
2018-03-25T23:31:22.815Z,24.67
2018-03-25T23:33:55.841Z,24.17
2018-03-25T23:36:25.565Z,24.43
2018-03-25T23:38:57.377Z,24.00
2018-03-25T23:41:26.866Z,24.67
2018-03-25T23:44:09.284Z,24.73
2018-03-25T23:46:39.931Z,25.17
2018-03-25T23:49:10.042Z,24.53
2018-03-25T23:51:39.959Z,23.60
2018-03-25T23:54:09.820Z,23.93
2018-03-25T23:56:40.072Z,25.90
2018-03-25T23:59:13.482Z,24.53
